sensor_id;sensor_type;location;lat;lon;timestamp;P1;durP1;ratioP1;P2;durP2;ratioP2
46713;SDS011;32445;51.376;10.874;2022-11-20T00:00:22;20.70;;;15.35;;
46713;SDS011;32445;51.376;10.874;2022-11-20T00:03:23;16.95;;;15.30;;
46713;SDS011;32445;51.376;10.874;2022-11-20T00:06:23;16.10;;;14.40;;
46713;SDS011;32445;51.376;10.874;2022-11-20T00:09:25;15.02;;;13.63;;
46713;SDS011;32445;51.376;10.874;2022-11-20T00:12:25;15.65;;;14.15;;
46713;SDS011;32445;51.376;10.874;2022-11-20T00:15:25;15.15;;;13.73;;
46713;SDS011;32445;51.376;10.874;2022-11-20T00:18:26;16.33;;;14.43;;
46713;SDS011;32445;51.376;10.874;2022-11-20T00:21:27;15.50;;;14.10;;
46713;SDS011;32445;51.376;10.874;2022-11-20T00:24:28;14.37;;;13.17;;
46713;SDS011;32445;51.376;10.874;2022-11-20T00:27:29;13.85;;;12.50;;
46713;SDS011;32445;51.376;10.874;2022-11-20T00:30:29;14.25;;;12.82;;
46713;SDS011;32445;51.376;10.874;2022-11-20T00:33:29;15.15;;;13.68;;
46713;SDS011;32445;51.376;10.874;2022-11-20T00:36:31;14.40;;;13.00;;
46713;SDS011;32445;51.376;10.874;2022-11-20T00:39:33;19.98;;;18.15;;
46713;SDS011;32445;51.376;10.874;2022-11-20T00:42:34;22.45;;;20.40;;
46713;SDS011;32445;51.376;10.874;2022-11-20T00:45:34;23.13;;;20.73;;
46713;SDS011;32445;51.376;10.874;2022-11-20T00:48:34;16.10;;;14.70;;
46713;SDS011;32445;51.376;10.874;2022-11-20T00:51:35;15.55;;;14.25;;
46713;SDS011;32445;51.376;10.874;2022-11-20T00:54:35;14.27;;;12.88;;
46713;SDS011;32445;51.376;10.874;2022-11-20T00:57:36;14.63;;;13.20;;
46713;SDS011;32445;51.376;10.874;2022-11-20T01:00:36;87.95;;;36.03;;
46713;SDS011;32445;51.376;10.874;2022-11-20T01:03:38;145.15;;;52.08;;
46713;SDS011;32445;51.376;10.874;2022-11-20T01:06:40;84.40;;;36.40;;
46713;SDS011;32445;51.376;10.874;2022-11-20T01:09:41;55.47;;;30.10;;
46713;SDS011;32445;51.376;10.874;2022-11-20T01:12:41;46.60;;;24.35;;
46713;SDS011;32445;51.376;10.874;2022-11-20T01:15:41;88.78;;;35.60;;
46713;SDS011;32445;51.376;10.874;2022-11-20T01:18:43;188.27;;;75.45;;
46713;SDS011;32445;51.376;10.874;2022-11-20T01:21:46;190.68;;;77.25;;
46713;SDS011;32445;51.376;10.874;2022-11-20T01:24:49;129.70;;;57.20;;
46713;SDS011;32445;51.376;10.874;2022-11-20T01:27:49;115.00;;;51.08;;
46713;SDS011;32445;51.376;10.874;2022-11-20T01:30:49;89.25;;;42.53;;
46713;SDS011;32445;51.376;10.874;2022-11-20T01:33:51;78.35;;;37.63;;
46713;SDS011;32445;51.376;10.874;2022-11-20T01:36:53;58.47;;;29.35;;
46713;SDS011;32445;51.376;10.874;2022-11-20T01:39:53;40.15;;;24.13;;
46713;SDS011;32445;51.376;10.874;2022-11-20T01:42:57;36.40;;;18.83;;
46713;SDS011;32445;51.376;10.874;2022-11-20T01:46:20;100.63;;;48.50;;
46713;SDS011;32445;51.376;10.874;2022-11-20T01:49:23;62.50;;;31.60;;
46713;SDS011;32445;51.376;10.874;2022-11-20T01:52:29;46.30;;;23.83;;
46713;SDS011;32445;51.376;10.874;2022-11-20T01:55:36;23.35;;;17.23;;
46713;SDS011;32445;51.376;10.874;2022-11-20T01:58:44;15.50;;;13.43;;
46713;SDS011;32445;51.376;10.874;2022-11-20T02:01:51;14.40;;;12.73;;
46713;SDS011;32445;51.376;10.874;2022-11-20T02:04:52;13.60;;;12.23;;
46713;SDS011;32445;51.376;10.874;2022-11-20T02:07:57;13.10;;;11.67;;
46713;SDS011;32445;51.376;10.874;2022-11-20T02:10:58;12.43;;;11.23;;
46713;SDS011;32445;51.376;10.874;2022-11-20T02:13:59;12.77;;;10.77;;
46713;SDS011;32445;51.376;10.874;2022-11-20T02:17:00;12.30;;;11.30;;
46713;SDS011;32445;51.376;10.874;2022-11-20T02:20:00;39.17;;;16.33;;
46713;SDS011;32445;51.376;10.874;2022-11-20T02:26:53;17.90;;;13.90;;
46713;SDS011;32445;51.376;10.874;2022-11-20T02:30:00;17.10;;;11.13;;
46713;SDS011;32445;51.376;10.874;2022-11-20T02:33:03;13.77;;;11.93;;
46713;SDS011;32445;51.376;10.874;2022-11-20T02:36:03;13.18;;;11.98;;
46713;SDS011;32445;51.376;10.874;2022-11-20T02:39:04;10.97;;;10.03;;
46713;SDS011;32445;51.376;10.874;2022-11-20T02:42:06;11.73;;;10.77;;
46713;SDS011;32445;51.376;10.874;2022-11-20T02:45:06;11.33;;;10.20;;
46713;SDS011;32445;51.376;10.874;2022-11-20T02:48:07;12.88;;;11.57;;
46713;SDS011;32445;51.376;10.874;2022-11-20T02:51:08;13.57;;;11.70;;
46713;SDS011;32445;51.376;10.874;2022-11-20T02:54:08;132.82;;;31.08;;
46713;SDS011;32445;51.376;10.874;2022-11-20T02:57:08;173.93;;;43.20;;
46713;SDS011;32445;51.376;10.874;2022-11-20T03:00:09;134.18;;;41.28;;
46713;SDS011;32445;51.376;10.874;2022-11-20T03:03:09;77.20;;;28.38;;
46713;SDS011;32445;51.376;10.874;2022-11-20T03:06:10;36.28;;;19.42;;
46713;SDS011;32445;51.376;10.874;2022-11-20T03:09:11;34.10;;;16.37;;
46713;SDS011;32445;51.376;10.874;2022-11-20T03:12:11;33.80;;;18.13;;
46713;SDS011;32445;51.376;10.874;2022-11-20T03:15:12;40.60;;;20.37;;
46713;SDS011;32445;51.376;10.874;2022-11-20T03:18:12;33.25;;;18.75;;
46713;SDS011;32445;51.376;10.874;2022-11-20T03:21:13;22.33;;;14.40;;
46713;SDS011;32445;51.376;10.874;2022-11-20T03:24:15;15.98;;;14.30;;
46713;SDS011;32445;51.376;10.874;2022-11-20T03:27:15;13.80;;;12.40;;
46713;SDS011;32445;51.376;10.874;2022-11-20T03:30:16;54.40;;;25.90;;
46713;SDS011;32445;51.376;10.874;2022-11-20T03:33:16;70.23;;;33.27;;
46713;SDS011;32445;51.376;10.874;2022-11-20T03:36:17;27.57;;;18.67;;
46713;SDS011;32445;51.376;10.874;2022-11-20T03:42:19;16.10;;;14.00;;
46713;SDS011;32445;51.376;10.874;2022-11-20T03:45:38;15.73;;;13.47;;
46713;SDS011;32445;51.376;10.874;2022-11-20T03:48:39;20.73;;;14.50;;
46713;SDS011;32445;51.376;10.874;2022-11-20T03:51:39;23.97;;;16.23;;
46713;SDS011;32445;51.376;10.874;2022-11-20T03:54:39;28.25;;;17.17;;
46713;SDS011;32445;51.376;10.874;2022-11-20T03:57:40;19.10;;;13.90;;
46713;SDS011;32445;51.376;10.874;2022-11-20T04:00:40;13.57;;;12.20;;
46713;SDS011;32445;51.376;10.874;2022-11-20T04:03:41;13.03;;;11.83;;
46713;SDS011;32445;51.376;10.874;2022-11-20T04:06:42;15.07;;;13.55;;
46713;SDS011;32445;51.376;10.874;2022-11-20T04:09:43;12.63;;;11.57;;
46713;SDS011;32445;51.376;10.874;2022-11-20T04:12:43;12.27;;;11.23;;
46713;SDS011;32445;51.376;10.874;2022-11-20T04:15:43;11.77;;;10.80;;
46713;SDS011;32445;51.376;10.874;2022-11-20T04:18:44;11.67;;;10.57;;
46713;SDS011;32445;51.376;10.874;2022-11-20T04:21:44;17.03;;;13.67;;
46713;SDS011;32445;51.376;10.874;2022-11-20T04:24:45;43.67;;;22.73;;
46713;SDS011;32445;51.376;10.874;2022-11-20T04:27:45;57.77;;;30.30;;
46713;SDS011;32445;51.376;10.874;2022-11-20T04:30:46;62.43;;;33.13;;
46713;SDS011;32445;51.376;10.874;2022-11-20T04:33:46;65.97;;;31.03;;
46713;SDS011;32445;51.376;10.874;2022-11-20T04:36:47;51.63;;;28.00;;
46713;SDS011;32445;51.376;10.874;2022-11-20T04:39:47;44.97;;;25.43;;
46713;SDS011;32445;51.376;10.874;2022-11-20T04:42:48;27.70;;;20.60;;
46713;SDS011;32445;51.376;10.874;2022-11-20T04:45:54;19.60;;;16.70;;
46713;SDS011;32445;51.376;10.874;2022-11-20T04:48:56;21.83;;;16.90;;
46713;SDS011;32445;51.376;10.874;2022-11-20T04:51:56;18.93;;;15.47;;
46713;SDS011;32445;51.376;10.874;2022-11-20T04:54:57;16.90;;;15.10;;
46713;SDS011;32445;51.376;10.874;2022-11-20T04:57:58;17.80;;;14.97;;
46713;SDS011;32445;51.376;10.874;2022-11-20T05:01:21;16.10;;;14.17;;
46713;SDS011;32445;51.376;10.874;2022-11-20T05:04:23;14.77;;;13.30;;
46713;SDS011;32445;51.376;10.874;2022-11-20T05:07:23;13.20;;;12.13;;
46713;SDS011;32445;51.376;10.874;2022-11-20T05:10:27;13.90;;;12.63;;
46713;SDS011;32445;51.376;10.874;2022-11-20T05:13:28;13.60;;;12.37;;
46713;SDS011;32445;51.376;10.874;2022-11-20T05:16:28;13.13;;;11.83;;
46713;SDS011;32445;51.376;10.874;2022-11-20T05:19:29;15.40;;;13.93;;
46713;SDS011;32445;51.376;10.874;2022-11-20T05:22:29;13.33;;;12.13;;
46713;SDS011;32445;51.376;10.874;2022-11-20T05:25:29;14.60;;;13.20;;
46713;SDS011;32445;51.376;10.874;2022-11-20T05:28:30;13.10;;;11.80;;
46713;SDS011;32445;51.376;10.874;2022-11-20T05:31:31;18.27;;;14.30;;
46713;SDS011;32445;51.376;10.874;2022-11-20T05:34:31;16.90;;;13.90;;
46713;SDS011;32445;51.376;10.874;2022-11-20T05:37:32;14.03;;;12.93;;
46713;SDS011;32445;51.376;10.874;2022-11-20T05:40:32;13.57;;;12.27;;
46713;SDS011;32445;51.376;10.874;2022-11-20T05:43:33;33.47;;;20.23;;
46713;SDS011;32445;51.376;10.874;2022-11-20T05:46:35;26.27;;;18.55;;
46713;SDS011;32445;51.376;10.874;2022-11-20T05:49:35;21.77;;;15.20;;
46713;SDS011;32445;51.376;10.874;2022-11-20T05:52:36;26.75;;;17.00;;
46713;SDS011;32445;51.376;10.874;2022-11-20T05:55:36;43.67;;;22.03;;
46713;SDS011;32445;51.376;10.874;2022-11-20T05:58:37;82.23;;;32.03;;
46713;SDS011;32445;51.376;10.874;2022-11-20T06:01:38;62.97;;;29.27;;
46713;SDS011;32445;51.376;10.874;2022-11-20T06:04:38;27.70;;;17.60;;
46713;SDS011;32445;51.376;10.874;2022-11-20T06:07:38;26.00;;;16.83;;
46713;SDS011;32445;51.376;10.874;2022-11-20T06:10:39;16.60;;;14.63;;
46713;SDS011;32445;51.376;10.874;2022-11-20T06:13:39;20.13;;;14.70;;
46713;SDS011;32445;51.376;10.874;2022-11-20T06:16:40;18.83;;;14.83;;
46713;SDS011;32445;51.376;10.874;2022-11-20T06:19:40;16.10;;;14.57;;
46713;SDS011;32445;51.376;10.874;2022-11-20T06:22:41;16.37;;;14.00;;
46713;SDS011;32445;51.376;10.874;2022-11-20T06:25:42;15.83;;;14.13;;
46713;SDS011;32445;51.376;10.874;2022-11-20T06:28:42;14.93;;;13.30;;
46713;SDS011;32445;51.376;10.874;2022-11-20T06:31:43;14.50;;;12.97;;
46713;SDS011;32445;51.376;10.874;2022-11-20T06:34:43;25.27;;;17.90;;
46713;SDS011;32445;51.376;10.874;2022-11-20T06:37:43;18.07;;;15.53;;
46713;SDS011;32445;51.376;10.874;2022-11-20T06:40:44;21.10;;;14.70;;
46713;SDS011;32445;51.376;10.874;2022-11-20T06:43:45;18.50;;;15.03;;
46713;SDS011;32445;51.376;10.874;2022-11-20T06:46:45;15.90;;;14.37;;
46713;SDS011;32445;51.376;10.874;2022-11-20T06:49:46;15.77;;;14.27;;
46713;SDS011;32445;51.376;10.874;2022-11-20T06:52:46;21.37;;;15.97;;
46713;SDS011;32445;51.376;10.874;2022-11-20T06:55:47;19.10;;;15.23;;
46713;SDS011;32445;51.376;10.874;2022-11-20T06:58:48;16.93;;;15.33;;
46713;SDS011;32445;51.376;10.874;2022-11-20T07:01:48;16.83;;;14.83;;
46713;SDS011;32445;51.376;10.874;2022-11-20T07:04:48;19.20;;;14.90;;
46713;SDS011;32445;51.376;10.874;2022-11-20T07:07:49;19.13;;;15.23;;
46713;SDS011;32445;51.376;10.874;2022-11-20T07:10:49;18.33;;;16.40;;
46713;SDS011;32445;51.376;10.874;2022-11-20T07:13:49;21.73;;;16.20;;
46713;SDS011;32445;51.376;10.874;2022-11-20T07:16:50;20.00;;;17.87;;
46713;SDS011;32445;51.376;10.874;2022-11-20T07:19:50;18.10;;;15.43;;
46713;SDS011;32445;51.376;10.874;2022-11-20T07:22:54;18.00;;;16.30;;
46713;SDS011;32445;51.376;10.874;2022-11-20T07:25:55;19.00;;;16.40;;
46713;SDS011;32445;51.376;10.874;2022-11-20T07:28:56;18.30;;;15.17;;
46713;SDS011;32445;51.376;10.874;2022-11-20T07:31:56;20.40;;;16.73;;
46713;SDS011;32445;51.376;10.874;2022-11-20T07:34:56;18.07;;;15.23;;
46713;SDS011;32445;51.376;10.874;2022-11-20T07:37:57;16.83;;;15.23;;
46713;SDS011;32445;51.376;10.874;2022-11-20T07:40:57;17.47;;;15.60;;
46713;SDS011;32445;51.376;10.874;2022-11-20T07:43:58;21.23;;;15.70;;
46713;SDS011;32445;51.376;10.874;2022-11-20T07:46:58;18.17;;;15.20;;
46713;SDS011;32445;51.376;10.874;2022-11-20T07:49:58;18.57;;;16.63;;
46713;SDS011;32445;51.376;10.874;2022-11-20T07:53:03;19.53;;;14.83;;
46713;SDS011;32445;51.376;10.874;2022-11-20T07:56:04;31.37;;;21.63;;
46713;SDS011;32445;51.376;10.874;2022-11-20T07:59:05;41.37;;;27.33;;
46713;SDS011;32445;51.376;10.874;2022-11-20T08:02:05;20.33;;;17.97;;
46713;SDS011;32445;51.376;10.874;2022-11-20T08:05:06;25.93;;;19.37;;
46713;SDS011;32445;51.376;10.874;2022-11-20T08:08:07;23.02;;;19.23;;
46713;SDS011;32445;51.376;10.874;2022-11-20T08:11:07;26.43;;;22.60;;
46713;SDS011;32445;51.376;10.874;2022-11-20T08:14:26;24.23;;;20.20;;
46713;SDS011;32445;51.376;10.874;2022-11-20T08:17:27;26.20;;;19.97;;
46713;SDS011;32445;51.376;10.874;2022-11-20T08:20:28;22.67;;;19.20;;
46713;SDS011;32445;51.376;10.874;2022-11-20T08:23:28;20.13;;;17.50;;
46713;SDS011;32445;51.376;10.874;2022-11-20T08:26:28;20.97;;;17.80;;
46713;SDS011;32445;51.376;10.874;2022-11-20T08:29:29;24.53;;;20.40;;
46713;SDS011;32445;51.376;10.874;2022-11-20T08:32:29;28.70;;;21.57;;
46713;SDS011;32445;51.376;10.874;2022-11-20T08:35:33;29.63;;;21.60;;
46713;SDS011;32445;51.376;10.874;2022-11-20T08:38:35;22.50;;;18.77;;
46713;SDS011;32445;51.376;10.874;2022-11-20T08:41:35;21.77;;;17.90;;
46713;SDS011;32445;51.376;10.874;2022-11-20T08:44:36;19.93;;;17.60;;
46713;SDS011;32445;51.376;10.874;2022-11-20T08:47:37;21.37;;;18.43;;
46713;SDS011;32445;51.376;10.874;2022-11-20T08:50:37;24.73;;;18.17;;
46713;SDS011;32445;51.376;10.874;2022-11-20T08:53:41;25.03;;;20.17;;
46713;SDS011;32445;51.376;10.874;2022-11-20T08:56:41;26.10;;;19.87;;
46713;SDS011;32445;51.376;10.874;2022-11-20T08:59:42;57.17;;;35.57;;
46713;SDS011;32445;51.376;10.874;2022-11-20T09:02:44;58.37;;;35.13;;
46713;SDS011;32445;51.376;10.874;2022-11-20T09:05:46;38.97;;;25.20;;
46713;SDS011;32445;51.376;10.874;2022-11-20T09:08:46;29.53;;;24.23;;
46713;SDS011;32445;51.376;10.874;2022-11-20T09:11:47;34.75;;;24.85;;
46713;SDS011;32445;51.376;10.874;2022-11-20T09:14:47;28.40;;;21.05;;
46713;SDS011;32445;51.376;10.874;2022-11-20T09:17:54;33.90;;;24.80;;
46713;SDS011;32445;51.376;10.874;2022-11-20T09:20:56;26.20;;;21.40;;
46713;SDS011;32445;51.376;10.874;2022-11-20T09:23:58;26.73;;;18.88;;
46713;SDS011;32445;51.376;10.874;2022-11-20T09:27:00;20.23;;;17.98;;
46713;SDS011;32445;51.376;10.874;2022-11-20T09:30:02;22.45;;;18.10;;
46713;SDS011;32445;51.376;10.874;2022-11-20T09:33:04;25.00;;;19.90;;
46713;SDS011;32445;51.376;10.874;2022-11-20T09:36:06;26.88;;;19.25;;
46713;SDS011;32445;51.376;10.874;2022-11-20T09:39:06;19.83;;;17.35;;
46713;SDS011;32445;51.376;10.874;2022-11-20T09:55:22;24.03;;;19.73;;
46713;SDS011;32445;51.376;10.874;2022-11-20T09:58:25;23.33;;;20.55;;
46713;SDS011;32445;51.376;10.874;2022-11-20T10:01:33;20.08;;;17.95;;
46713;SDS011;32445;51.376;10.874;2022-11-20T10:04:38;23.83;;;19.00;;
46713;SDS011;32445;51.376;10.874;2022-11-20T10:07:52;22.40;;;18.75;;
46713;SDS011;32445;51.376;10.874;2022-11-20T10:23:53;26.45;;;21.73;;
46713;SDS011;32445;51.376;10.874;2022-11-20T10:30:16;20.42;;;17.45;;
46713;SDS011;32445;51.376;10.874;2022-11-20T10:33:21;17.80;;;15.98;;
46713;SDS011;32445;51.376;10.874;2022-11-20T10:36:25;20.58;;;16.58;;
46713;SDS011;32445;51.376;10.874;2022-11-20T10:43:33;21.95;;;16.50;;
46713;SDS011;32445;51.376;10.874;2022-11-20T10:46:43;18.55;;;16.65;;
46713;SDS011;32445;51.376;10.874;2022-11-20T10:49:45;18.55;;;16.58;;
46713;SDS011;32445;51.376;10.874;2022-11-20T10:56:05;21.30;;;17.17;;
46713;SDS011;32445;51.376;10.874;2022-11-20T11:02:50;21.42;;;17.58;;
46713;SDS011;32445;51.376;10.874;2022-11-20T11:09:00;17.48;;;15.48;;
46713;SDS011;32445;51.376;10.874;2022-11-20T11:12:11;19.02;;;17.00;;
46713;SDS011;32445;51.376;10.874;2022-11-20T11:15:13;19.20;;;17.40;;
46713;SDS011;32445;51.376;10.874;2022-11-20T11:18:25;20.13;;;16.63;;
46713;SDS011;32445;51.376;10.874;2022-11-20T11:21:27;21.17;;;16.15;;
46713;SDS011;32445;51.376;10.874;2022-11-20T11:24:28;18.20;;;15.70;;
46713;SDS011;32445;51.376;10.874;2022-11-20T11:30:40;16.95;;;15.30;;
46713;SDS011;32445;51.376;10.874;2022-11-20T11:33:42;18.75;;;16.95;;
46713;SDS011;32445;51.376;10.874;2022-11-20T11:36:49;19.95;;;17.08;;
46713;SDS011;32445;51.376;10.874;2022-11-20T11:39:57;18.75;;;16.63;;
46713;SDS011;32445;51.376;10.874;2022-11-20T11:43:02;21.98;;;16.20;;
46713;SDS011;32445;51.376;10.874;2022-11-20T11:49:21;17.70;;;15.90;;
46713;SDS011;32445;51.376;10.874;2022-11-20T11:52:22;18.15;;;16.25;;
46713;SDS011;32445;51.376;10.874;2022-11-20T12:01:44;16.67;;;14.95;;
46713;SDS011;32445;51.376;10.874;2022-11-20T12:04:53;16.00;;;14.43;;
46713;SDS011;32445;51.376;10.874;2022-11-20T12:08:04;17.15;;;15.25;;
46713;SDS011;32445;51.376;10.874;2022-11-20T12:14:51;17.05;;;15.35;;
46713;SDS011;32445;51.376;10.874;2022-11-20T12:17:55;17.27;;;15.45;;
46713;SDS011;32445;51.376;10.874;2022-11-20T12:24:33;15.15;;;13.68;;
46713;SDS011;32445;51.376;10.874;2022-11-20T12:27:53;15.25;;;13.50;;
46713;SDS011;32445;51.376;10.874;2022-11-20T12:31:29;15.77;;;14.27;;
46713;SDS011;32445;51.376;10.874;2022-11-20T12:41:31;15.25;;;13.93;;
46713;SDS011;32445;51.376;10.874;2022-11-20T12:58:10;13.90;;;12.73;;
46713;SDS011;32445;51.376;10.874;2022-11-20T13:01:25;14.70;;;13.20;;
46713;SDS011;32445;51.376;10.874;2022-11-20T13:04:52;14.82;;;13.38;;
46713;SDS011;32445;51.376;10.874;2022-11-20T13:07:57;14.00;;;12.63;;
46713;SDS011;32445;51.376;10.874;2022-11-20T13:11:01;15.80;;;14.13;;
46713;SDS011;32445;51.376;10.874;2022-11-20T13:17:43;13.52;;;12.32;;
46713;SDS011;32445;51.376;10.874;2022-11-20T13:20:50;14.23;;;12.80;;
46713;SDS011;32445;51.376;10.874;2022-11-20T13:23:51;13.90;;;12.70;;
46713;SDS011;32445;51.376;10.874;2022-11-20T13:30:14;12.95;;;11.85;;
46713;SDS011;32445;51.376;10.874;2022-11-20T13:33:34;12.13;;;11.13;;
46713;SDS011;32445;51.376;10.874;2022-11-20T13:36:36;12.55;;;11.45;;
46713;SDS011;32445;51.376;10.874;2022-11-20T13:39:50;13.00;;;11.93;;
46713;SDS011;32445;51.376;10.874;2022-11-20T13:45:55;12.65;;;11.48;;
46713;SDS011;32445;51.376;10.874;2022-11-20T13:48:57;12.13;;;10.95;;
46713;SDS011;32445;51.376;10.874;2022-11-20T13:59:14;12.50;;;11.32;;
46713;SDS011;32445;51.376;10.874;2022-11-20T14:02:44;11.75;;;10.85;;
46713;SDS011;32445;51.376;10.874;2022-11-20T14:06:02;11.35;;;10.35;;
46713;SDS011;32445;51.376;10.874;2022-11-20T14:09:04;12.43;;;11.43;;
46713;SDS011;32445;51.376;10.874;2022-11-20T14:12:14;12.48;;;11.48;;
46713;SDS011;32445;51.376;10.874;2022-11-20T14:15:30;12.15;;;11.15;;
46713;SDS011;32445;51.376;10.874;2022-11-20T14:18:32;9.63;;;8.90;;
46713;SDS011;32445;51.376;10.874;2022-11-20T14:21:33;9.88;;;8.98;;
46713;SDS011;32445;51.376;10.874;2022-11-20T14:24:33;10.68;;;9.75;;
46713;SDS011;32445;51.376;10.874;2022-11-20T14:27:35;9.63;;;8.93;;
46713;SDS011;32445;51.376;10.874;2022-11-20T14:30:41;8.88;;;8.18;;
46713;SDS011;32445;51.376;10.874;2022-11-20T14:33:44;8.98;;;8.18;;
46713;SDS011;32445;51.376;10.874;2022-11-20T14:36:44;9.63;;;8.82;;
46713;SDS011;32445;51.376;10.874;2022-11-20T14:39:51;9.98;;;9.15;;
46713;SDS011;32445;51.376;10.874;2022-11-20T14:42:53;10.30;;;9.40;;
46713;SDS011;32445;51.376;10.874;2022-11-20T14:46:03;10.77;;;9.68;;
46713;SDS011;32445;51.376;10.874;2022-11-20T14:49:07;11.23;;;10.32;;
46713;SDS011;32445;51.376;10.874;2022-11-20T14:52:15;12.15;;;9.82;;
46713;SDS011;32445;51.376;10.874;2022-11-20T14:55:27;10.63;;;9.82;;
46713;SDS011;32445;51.376;10.874;2022-11-20T14:58:34;10.40;;;9.50;;
46713;SDS011;32445;51.376;10.874;2022-11-20T15:01:35;11.48;;;10.48;;
46713;SDS011;32445;51.376;10.874;2022-11-20T15:04:46;54.65;;;29.63;;
46713;SDS011;32445;51.376;10.874;2022-11-20T15:07:48;26.77;;;19.90;;
46713;SDS011;32445;51.376;10.874;2022-11-20T15:10:54;32.45;;;22.52;;
46713;SDS011;32445;51.376;10.874;2022-11-20T15:13:55;21.92;;;18.30;;
46713;SDS011;32445;51.376;10.874;2022-11-20T15:16:56;17.02;;;15.10;;
46713;SDS011;32445;51.376;10.874;2022-11-20T15:19:59;15.98;;;13.90;;
46713;SDS011;32445;51.376;10.874;2022-11-20T15:23:02;52.78;;;35.03;;
46713;SDS011;32445;51.376;10.874;2022-11-20T15:26:09;114.25;;;54.30;;
46713;SDS011;32445;51.376;10.874;2022-11-20T15:29:13;180.70;;;77.25;;
46713;SDS011;32445;51.376;10.874;2022-11-20T15:32:18;197.07;;;90.95;;
46713;SDS011;32445;51.376;10.874;2022-11-20T15:35:18;200.18;;;79.28;;
46713;SDS011;32445;51.376;10.874;2022-11-20T15:38:19;132.82;;;52.60;;
46713;SDS011;32445;51.376;10.874;2022-11-20T15:41:19;66.22;;;31.95;;
46713;SDS011;32445;51.376;10.874;2022-11-20T15:44:20;92.80;;;42.88;;
46713;SDS011;32445;51.376;10.874;2022-11-20T15:47:21;45.78;;;24.30;;
46713;SDS011;32445;51.376;10.874;2022-11-20T15:50:36;41.10;;;25.27;;
46713;SDS011;32445;51.376;10.874;2022-11-20T15:53:39;47.67;;;27.77;;
46713;SDS011;32445;51.376;10.874;2022-11-20T15:56:41;80.68;;;44.42;;
46713;SDS011;32445;51.376;10.874;2022-11-20T15:59:41;150.05;;;75.38;;
46713;SDS011;32445;51.376;10.874;2022-11-20T16:02:42;57.50;;;34.65;;
46713;SDS011;32445;51.376;10.874;2022-11-20T16:09:00;163.65;;;76.15;;
46713;SDS011;32445;51.376;10.874;2022-11-20T16:12:01;150.13;;;63.63;;
46713;SDS011;32445;51.376;10.874;2022-11-20T16:15:01;165.43;;;68.10;;
46713;SDS011;32445;51.376;10.874;2022-11-20T16:18:21;94.88;;;45.17;;
46713;SDS011;32445;51.376;10.874;2022-11-20T16:21:22;66.80;;;34.45;;
46713;SDS011;32445;51.376;10.874;2022-11-20T16:24:31;65.00;;;34.33;;
46713;SDS011;32445;51.376;10.874;2022-11-20T16:27:31;88.57;;;53.35;;
46713;SDS011;32445;51.376;10.874;2022-11-20T16:30:32;67.53;;;43.08;;
46713;SDS011;32445;51.376;10.874;2022-11-20T16:33:33;42.43;;;30.00;;
46713;SDS011;32445;51.376;10.874;2022-11-20T16:36:33;39.38;;;31.73;;
46713;SDS011;32445;51.376;10.874;2022-11-20T16:39:34;26.17;;;21.92;;
46713;SDS011;32445;51.376;10.874;2022-11-20T16:42:35;33.25;;;28.02;;
46713;SDS011;32445;51.376;10.874;2022-11-20T16:45:39;23.50;;;21.00;;
46713;SDS011;32445;51.376;10.874;2022-11-20T16:48:41;19.77;;;17.67;;
46713;SDS011;32445;51.376;10.874;2022-11-20T16:51:42;20.25;;;17.65;;
46713;SDS011;32445;51.376;10.874;2022-11-20T16:54:42;18.65;;;16.65;;
46713;SDS011;32445;51.376;10.874;2022-11-20T16:57:42;19.67;;;17.63;;
46713;SDS011;32445;51.376;10.874;2022-11-20T17:00:43;16.70;;;15.05;;
46713;SDS011;32445;51.376;10.874;2022-11-20T17:03:43;17.95;;;16.00;;
46713;SDS011;32445;51.376;10.874;2022-11-20T17:06:45;14.75;;;13.45;;
46713;SDS011;32445;51.376;10.874;2022-11-20T17:09:47;15.60;;;13.90;;
46713;SDS011;32445;51.376;10.874;2022-11-20T17:12:47;16.45;;;13.77;;
46713;SDS011;32445;51.376;10.874;2022-11-20T17:15:47;14.43;;;13.20;;
46713;SDS011;32445;51.376;10.874;2022-11-20T17:18:48;15.48;;;13.43;;
46713;SDS011;32445;51.376;10.874;2022-11-20T17:21:51;19.08;;;15.13;;
46713;SDS011;32445;51.376;10.874;2022-11-20T17:24:51;15.57;;;13.95;;
46713;SDS011;32445;51.376;10.874;2022-11-20T17:27:53;15.93;;;14.23;;
46713;SDS011;32445;51.376;10.874;2022-11-20T17:30:57;15.10;;;13.50;;
46713;SDS011;32445;51.376;10.874;2022-11-20T17:33:59;20.27;;;16.30;;
46713;SDS011;32445;51.376;10.874;2022-11-20T17:37:00;24.27;;;19.02;;
46713;SDS011;32445;51.376;10.874;2022-11-20T17:40:01;40.83;;;24.70;;
46713;SDS011;32445;51.376;10.874;2022-11-20T17:43:01;45.08;;;30.00;;
46713;SDS011;32445;51.376;10.874;2022-11-20T17:46:08;46.72;;;30.38;;
46713;SDS011;32445;51.376;10.874;2022-11-20T17:49:12;46.03;;;29.48;;
46713;SDS011;32445;51.376;10.874;2022-11-20T17:52:13;31.60;;;22.73;;
46713;SDS011;32445;51.376;10.874;2022-11-20T17:55:14;20.90;;;17.23;;
46713;SDS011;32445;51.376;10.874;2022-11-20T17:58:14;22.85;;;17.40;;
46713;SDS011;32445;51.376;10.874;2022-11-20T18:01:15;16.73;;;14.93;;
46713;SDS011;32445;51.376;10.874;2022-11-20T18:04:17;18.08;;;14.85;;
46713;SDS011;32445;51.376;10.874;2022-11-20T18:07:17;20.80;;;17.45;;
46713;SDS011;32445;51.376;10.874;2022-11-20T18:10:17;18.77;;;16.67;;
46713;SDS011;32445;51.376;10.874;2022-11-20T18:13:18;18.92;;;16.95;;
46713;SDS011;32445;51.376;10.874;2022-11-20T18:16:18;22.13;;;16.35;;
46713;SDS011;32445;51.376;10.874;2022-11-20T18:19:21;18.95;;;16.92;;
46713;SDS011;32445;51.376;10.874;2022-11-20T18:22:24;19.05;;;16.58;;
46713;SDS011;32445;51.376;10.874;2022-11-20T18:25:24;18.05;;;16.15;;
46713;SDS011;32445;51.376;10.874;2022-11-20T18:28:24;22.05;;;17.52;;
46713;SDS011;32445;51.376;10.874;2022-11-20T18:31:25;17.48;;;15.73;;
46713;SDS011;32445;51.376;10.874;2022-11-20T18:34:26;17.70;;;15.88;;
46713;SDS011;32445;51.376;10.874;2022-11-20T18:37:26;18.48;;;16.10;;
46713;SDS011;32445;51.376;10.874;2022-11-20T18:40:27;18.27;;;15.98;;
46713;SDS011;32445;51.376;10.874;2022-11-20T18:43:27;20.17;;;17.13;;
46713;SDS011;32445;51.376;10.874;2022-11-20T18:46:46;57.08;;;36.17;;
46713;SDS011;32445;51.376;10.874;2022-11-20T18:49:48;42.50;;;26.83;;
46713;SDS011;32445;51.376;10.874;2022-11-20T18:52:53;28.27;;;21.27;;
46713;SDS011;32445;51.376;10.874;2022-11-20T18:55:54;25.40;;;20.90;;
46713;SDS011;32445;51.376;10.874;2022-11-20T18:58:55;34.53;;;24.55;;
46713;SDS011;32445;51.376;10.874;2022-11-20T19:01:57;28.00;;;21.38;;
46713;SDS011;32445;51.376;10.874;2022-11-20T19:04:57;30.85;;;24.83;;
46713;SDS011;32445;51.376;10.874;2022-11-20T19:07:58;28.52;;;21.27;;
46713;SDS011;32445;51.376;10.874;2022-11-20T19:11:08;32.65;;;23.35;;
46713;SDS011;32445;51.376;10.874;2022-11-20T19:17:11;32.05;;;24.20;;
46713;SDS011;32445;51.376;10.874;2022-11-20T19:20:11;35.88;;;24.13;;
46713;SDS011;32445;51.376;10.874;2022-11-20T19:23:12;37.70;;;26.13;;
46713;SDS011;32445;51.376;10.874;2022-11-20T19:26:12;37.40;;;26.02;;